Check, VA

7:34 AM EDT on September 05, 2015 (GMT -0400)
Sandy Flat Farm | | Change Station
CLOSE
Current Station
Personal Weather Station
Location: Floyd, VA
Elevation: 2454 ft
Nearby Weather Stations

Elev 2454 ft 36.94 °N, 80.25 °W | Updated 6 minutes ago

Fog
Fog
63.0 °F
Feels Like 63.0 °F
N
2.2
Wind Variable Wind from East

Today
High -- | Low -- °F
--% Chance of Precip.
Yesterday
High -- | Low -- °F
Precip. -- in
6:54 AM 7:43 PM
Waning Gibbous, 49% visible
Pressure 30.27 in
Visibility 2.0 miles
Clouds Scattered Clouds 2200 ft
Mostly Cloudy 2800 ft
Dew Point 62 °F
Humidity 98%
Rainfall 0.00 in
Snow Depth Not available.
UV 0 out of 12
Pollen 7.70 out of 12
Air Quality Not available.
Flu Activity Not available.
METAR KBCB 051115Z AUTO 00000KT 2SM BR SCT022 BKN028 16/16 A3027 RMK AO2 T01620162
Pressure 30.27 in
Visibility 2.0 miles
Clouds Scattered Clouds 2200 ft
Mostly Cloudy 2800 ft
Dew Point 62 °F
Humidity 98%
Rainfall 0.00 in
Snow Depth Not available.
UV 0 out of 12
Pollen 7.70 out of 12
Air Quality Not available.
Flu Activity Not available.
METAR KBCB 051115Z AUTO 00000KT 2SM BR SCT022 BKN028 16/16 A3027 RMK AO2 T01620162

10-Day Weather Forecast

×

Almanac

Astronomy

Sep. 05, 2015 Rise Set
Actual Time
Civil Twilight
Nautical Twilight
Astronomical Twilight
Moon
Length of Visible Light
Length of Day
Tomorrow will be .
, % of the Moon is Illuminated

Today's Extremes

State Highs State Lows

Community

WunderPhotos

Upload Photos

1,852,449 photos uploaded!

WunderBlogs® & News

Nearby

Air Quality

  Air Quality AQ Index Pollutant
Not available.

Snow Depth

Station Depth Elevation

Earthquake Activity

City Distance Mag. Time & Date
Minimum magnitude displayed is 2.5.

Coastal Water Temperatures

Place Temperature

Stations

Nearby Weather Stations

Station Location Temp. Windchill Dew Point Humidity Wind Precip. Elev Updated Type